createdAt,value
2023-05-14T00:01:22.900Z,4.43
2023-05-14T00:03:49.792Z,4.97
2023-05-14T00:06:16.662Z,4.50
2023-05-14T00:08:43.448Z,4.50
2023-05-14T00:11:10.228Z,4.25
2023-05-14T00:13:37.166Z,4.28
2023-05-14T00:16:04.297Z,4.88
2023-05-14T00:18:31.225Z,3.90
2023-05-14T00:20:59.335Z,4.20
2023-05-14T00:23:26.138Z,4.20
2023-05-14T00:25:52.977Z,4.30
2023-05-14T00:28:20.083Z,4.30
2023-05-14T00:30:47.087Z,3.60
2023-05-14T00:33:15.566Z,3.65
2023-05-14T00:35:42.500Z,4.40
2023-05-14T00:38:09.833Z,4.22
2023-05-14T00:40:36.687Z,3.80
2023-05-14T00:43:03.809Z,3.67
2023-05-14T00:45:31.006Z,3.70
2023-05-14T00:48:16.405Z,3.97
2023-05-14T00:50:44.434Z,3.67
2023-05-14T00:53:12.252Z,3.35
2023-05-14T00:55:40.866Z,3.88
2023-05-14T00:58:10.703Z,4.07
2023-05-14T01:00:38.162Z,3.78
2023-05-14T01:03:06.625Z,4.43
2023-05-14T01:05:41.415Z,3.63
2023-05-14T01:08:27.355Z,3.25
2023-05-14T01:11:05.003Z,4.32
2023-05-14T01:13:57.575Z,3.80
2023-05-14T01:16:28.005Z,3.45
2023-05-14T01:18:57.601Z,4.40
2023-05-14T01:21:26.033Z,4.55
2023-05-14T01:23:53.241Z,4.32
2023-05-14T01:26:20.945Z,4.15
2023-05-14T01:28:50.905Z,2.75
2023-05-14T01:31:25.211Z,3.75
2023-05-14T01:33:53.111Z,4.30
2023-05-14T01:36:20.299Z,4.32
2023-05-14T01:38:49.698Z,3.22
2023-05-14T01:41:18.318Z,3.58
2023-05-14T01:43:45.727Z,4.05
2023-05-14T01:46:12.619Z,3.92
2023-05-14T01:48:39.423Z,4.40
2023-05-14T01:51:06.702Z,5.28
2023-05-14T01:53:34.962Z,4.30
2023-05-14T01:56:02.011Z,4.50
2023-05-14T02:01:13.122Z,3.85
2023-05-14T02:03:58.830Z,5.38
2023-05-14T02:06:26.176Z,4.18
2023-05-14T02:08:55.923Z,4.07
2023-05-14T02:11:22.775Z,4.07
2023-05-14T02:13:49.571Z,4.53
2023-05-14T02:16:16.530Z,4.05
2023-05-14T02:18:43.451Z,4.63
2023-05-14T02:21:10.298Z,3.75
2023-05-14T02:23:41.522Z,5.10
2023-05-14T02:26:10.470Z,5.22
2023-05-14T02:28:37.286Z,4.88
2023-05-14T02:31:04.214Z,3.70
2023-05-14T02:33:31.069Z,4.53
2023-05-14T02:35:58.671Z,4.15
2023-05-14T02:38:26.810Z,4.85
2023-05-14T02:40:55.557Z,4.95
2023-05-14T02:43:22.322Z,4.72
2023-05-14T02:45:49.105Z,5.35
2023-05-14T02:48:15.941Z,4.82
2023-05-14T02:50:42.743Z,5.32
2023-05-14T02:53:09.500Z,6.03
2023-05-14T02:55:36.500Z,4.40
2023-05-14T02:58:03.551Z,5.68
2023-05-14T03:00:30.493Z,6.13
2023-05-14T03:02:57.739Z,6.38
2023-05-14T03:05:24.907Z,6.57
2023-05-14T03:07:53.636Z,5.05
2023-05-14T03:10:20.646Z,6.80
2023-05-14T03:12:47.671Z,6.85
2023-05-14T03:18:17.742Z,6.53
2023-05-14T03:20:46.292Z,5.88
2023-05-14T03:23:13.602Z,6.13
2023-05-14T03:25:40.665Z,6.53
2023-05-14T03:28:07.651Z,5.43
2023-05-14T03:30:34.560Z,7.20
2023-05-14T03:33:01.423Z,7.22
2023-05-14T03:35:46.991Z,5.97
2023-05-14T03:38:14.117Z,7.00
2023-05-14T03:40:40.986Z,6.45
2023-05-14T03:43:07.726Z,6.80
2023-05-14T03:45:35.492Z,7.53
2023-05-14T03:48:02.709Z,7.85
2023-05-14T03:50:32.960Z,7.53
2023-05-14T03:52:59.746Z,7.00
2023-05-14T03:55:26.504Z,7.13
2023-05-14T03:57:53.312Z,7.38
2023-05-14T04:00:21.392Z,7.72
2023-05-14T04:02:48.467Z,7.78
2023-05-14T04:05:15.600Z,7.80
2023-05-14T04:07:42.507Z,7.32
2023-05-14T04:10:28.253Z,8.68
2023-05-14T04:12:58.002Z,6.95
2023-05-14T04:15:29.465Z,7.78
2023-05-14T04:17:56.357Z,7.53
2023-05-14T04:20:23.297Z,7.53
2023-05-14T04:22:50.358Z,7.40
2023-05-14T04:25:18.518Z,6.78
2023-05-14T04:27:45.443Z,6.63
2023-05-14T04:30:12.564Z,5.70
2023-05-14T04:32:39.450Z,6.72
2023-05-14T04:35:06.918Z,6.78
2023-05-14T04:37:33.759Z,6.95
2023-05-14T04:42:45.304Z,6.70
2023-05-14T04:45:32.181Z,7.55
2023-05-14T04:48:00.423Z,6.68
2023-05-14T04:50:27.323Z,6.43
2023-05-14T04:52:55.896Z,6.18
2023-05-14T04:55:23.160Z,7.30
2023-05-14T04:57:50.258Z,7.65
2023-05-14T05:00:17.909Z,7.05
2023-05-14T05:02:44.936Z,7.15
2023-05-14T05:05:11.818Z,6.72
2023-05-14T05:07:38.588Z,7.30
2023-05-14T05:10:24.512Z,6.53
2023-05-14T05:12:51.532Z,6.88
2023-05-14T05:15:18.372Z,6.63
2023-05-14T05:17:45.238Z,5.68
2023-05-14T05:20:12.800Z,6.40
2023-05-14T05:22:39.795Z,6.40
2023-05-14T05:25:08.141Z,6.63
2023-05-14T05:27:35.121Z,7.03
2023-05-14T05:30:02.269Z,5.85
2023-05-14T05:32:29.152Z,5.20
2023-05-14T05:34:56.028Z,5.10
2023-05-14T05:37:22.806Z,5.80
2023-05-14T05:39:49.518Z,4.95
2023-05-14T05:42:16.532Z,6.15
2023-05-14T05:44:43.322Z,6.20
2023-05-14T05:47:10.123Z,4.65
2023-05-14T05:49:37.771Z,4.70
2023-05-14T05:52:05.030Z,5.00
2023-05-14T05:54:32.509Z,4.28
2023-05-14T05:56:59.847Z,5.15
2023-05-14T05:59:45.093Z,4.82
2023-05-14T06:02:11.915Z,4.53
2023-05-14T06:04:38.733Z,4.63
2023-05-14T06:07:05.786Z,4.38
2023-05-14T06:09:32.540Z,4.55
2023-05-14T06:11:59.358Z,3.67
2023-05-14T06:14:26.103Z,4.30
2023-05-14T06:16:52.997Z,4.85
2023-05-14T06:19:19.964Z,4.75
2023-05-14T06:21:46.865Z,3.60
2023-05-14T06:24:32.200Z,3.75
2023-05-14T06:26:59.057Z,3.45
2023-05-14T06:29:25.891Z,4.05
2023-05-14T06:31:52.785Z,4.05
2023-05-14T06:34:19.537Z,3.47
2023-05-14T06:36:46.328Z,2.67
2023-05-14T06:39:13.099Z,2.72
2023-05-14T06:41:39.896Z,2.47
2023-05-14T06:44:08.038Z,2.00
2023-05-14T06:46:34.893Z,1.80
2023-05-14T06:49:20.315Z,2.40
2023-05-14T06:51:47.277Z,1.70
2023-05-14T06:54:14.030Z,1.77
2023-05-14T06:56:40.877Z,2.13
2023-05-14T06:59:07.671Z,1.92
2023-05-14T07:01:34.459Z,2.17
2023-05-14T07:04:01.270Z,1.70
2023-05-14T07:06:28.202Z,1.27
2023-05-14T07:08:55.226Z,2.10
2023-05-14T07:11:22.354Z,2.22
2023-05-14T07:13:49.196Z,2.05
2023-05-14T07:16:16.109Z,1.63
2023-05-14T07:18:43.864Z,1.75
2023-05-14T07:21:29.308Z,2.42
2023-05-14T07:23:56.187Z,1.85
2023-05-14T07:26:24.593Z,1.90
2023-05-14T07:28:51.418Z,1.80
2023-05-14T07:31:18.338Z,1.73
2023-05-14T07:33:45.496Z,2.03
2023-05-14T07:36:31.049Z,2.00
2023-05-14T07:38:57.971Z,1.40
2023-05-14T07:41:24.743Z,1.52
2023-05-14T07:43:51.562Z,1.27
2023-05-14T07:46:18.373Z,1.73
2023-05-14T07:48:45.266Z,1.42
2023-05-14T07:51:12.189Z,1.33
2023-05-14T07:53:38.988Z,1.70
2023-05-14T07:56:06.196Z,1.33
2023-05-14T07:58:33.078Z,1.33
2023-05-14T08:01:01.389Z,1.55
2023-05-14T08:06:12.287Z,1.80
2023-05-14T08:08:39.058Z,1.63
2023-05-14T08:13:50.334Z,1.20
2023-05-14T08:16:17.163Z,1.38
2023-05-14T08:18:44.032Z,1.50
2023-05-14T08:21:11.154Z,1.50
2023-05-14T08:23:37.992Z,1.10
2023-05-14T08:26:23.360Z,1.88
2023-05-14T08:28:50.194Z,1.00
2023-05-14T08:31:17.038Z,1.60
2023-05-14T08:33:43.917Z,1.90
2023-05-14T08:36:10.947Z,1.48
2023-05-14T08:38:37.749Z,1.13
2023-05-14T08:41:06.240Z,1.00
2023-05-14T08:43:50.675Z,1.30
2023-05-14T08:46:19.180Z,1.00
2023-05-14T08:48:50.599Z,1.00
2023-05-14T08:51:17.445Z,1.05
2023-05-14T08:53:44.693Z,1.15
2023-05-14T08:56:12.926Z,1.50
2023-05-14T08:58:39.700Z,1.70
2023-05-14T09:01:06.772Z,1.30
2023-05-14T09:03:34.608Z,1.40
2023-05-14T09:06:02.420Z,1.50
2023-05-14T09:08:29.435Z,1.25
2023-05-14T09:10:56.321Z,1.33
2023-05-14T09:13:23.148Z,1.52
2023-05-14T09:18:54.496Z,1.20
2023-05-14T09:21:21.344Z,1.38
2023-05-14T09:23:57.072Z,1.17
2023-05-14T09:26:42.726Z,1.80
2023-05-14T09:29:09.792Z,1.30
2023-05-14T09:31:37.447Z,1.67
2023-05-14T09:34:04.529Z,1.23
2023-05-14T09:36:34.943Z,1.20
2023-05-14T09:39:20.437Z,1.40
2023-05-14T09:41:47.226Z,1.48
2023-05-14T09:44:14.154Z,1.45
2023-05-14T09:46:40.984Z,1.50
2023-05-14T09:49:07.829Z,1.10
2023-05-14T09:51:34.670Z,1.40
2023-05-14T09:54:02.244Z,1.20
2023-05-14T09:56:29.101Z,0.88
2023-05-14T09:59:15.002Z,0.90
2023-05-14T10:01:44.412Z,0.70
2023-05-14T10:04:12.798Z,0.77
2023-05-14T10:06:42.267Z,1.08
2023-05-14T10:09:22.203Z,1.13
2023-05-14T10:11:53.583Z,0.70
2023-05-14T10:14:43.268Z,0.90
2023-05-14T10:17:18.343Z,0.70
2023-05-14T10:19:52.777Z,0.50
2023-05-14T10:22:23.925Z,0.65
2023-05-14T10:24:52.702Z,0.68
2023-05-14T10:27:22.461Z,0.90
2023-05-14T10:29:54.607Z,0.70
2023-05-14T10:32:25.216Z,0.68
2023-05-14T10:34:55.216Z,0.60
2023-05-14T10:37:23.698Z,0.63
2023-05-14T10:40:02.275Z,0.40
2023-05-14T10:42:35.410Z,0.50
2023-05-14T10:45:07.386Z,0.40
2023-05-14T10:47:36.350Z,0.50
2023-05-14T10:50:06.147Z,0.55
2023-05-14T10:52:52.189Z,0.32
2023-05-14T10:55:18.999Z,0.43
2023-05-14T10:57:46.701Z,0.45
2023-05-14T11:00:14.880Z,0.75
2023-05-14T11:02:43.612Z,0.55
2023-05-14T11:05:14.361Z,0.40
2023-05-14T11:07:49.515Z,0.40
2023-05-14T11:10:22.026Z,0.35
2023-05-14T11:12:51.081Z,0.40
2023-05-14T11:15:22.752Z,0.20
2023-05-14T11:17:51.054Z,0.30
2023-05-14T11:20:18.721Z,0.20
2023-05-14T11:22:47.896Z,0.30
2023-05-14T11:25:15.267Z,0.30
2023-05-14T11:27:45.738Z,0.20
2023-05-14T11:30:14.333Z,0.30
2023-05-14T11:32:41.998Z,0.40
2023-05-14T11:35:09.049Z,0.28
2023-05-14T11:37:54.716Z,0.50
2023-05-14T11:40:39.918Z,0.30
2023-05-14T11:43:06.805Z,0.40
2023-05-14T11:45:33.795Z,0.30
2023-05-14T11:48:00.820Z,0.20
2023-05-14T11:50:27.918Z,0.35
2023-05-14T11:52:57.049Z,0.20
2023-05-14T11:55:23.989Z,0.40
2023-05-14T12:00:37.550Z,0.40
2023-05-14T12:03:04.663Z,1.42
2023-05-14T12:05:31.549Z,1.23
2023-05-14T12:07:58.361Z,1.17
2023-05-14T12:10:25.843Z,0.90
2023-05-14T12:12:52.914Z,1.02
2023-05-14T12:15:21.823Z,0.85
2023-05-14T12:18:22.806Z,0.90
2023-05-14T12:20:54.076Z,1.17
2023-05-14T12:23:29.053Z,0.95
2023-05-14T12:26:01.118Z,0.85
2023-05-14T12:28:28.774Z,1.10
2023-05-14T12:31:18.626Z,1.17
2023-05-14T12:33:45.846Z,1.23
2023-05-14T12:36:21.677Z,1.40
2023-05-14T12:39:00.629Z,1.58
2023-05-14T12:41:28.286Z,1.13
2023-05-14T12:44:13.564Z,1.30
2023-05-14T12:46:40.446Z,1.50
2023-05-14T12:49:07.262Z,1.30
2023-05-14T12:54:41.694Z,1.08
2023-05-14T12:57:10.000Z,1.50
2023-05-14T12:59:36.800Z,1.63
2023-05-14T13:02:03.736Z,2.15
2023-05-14T13:04:30.767Z,1.95
2023-05-14T13:07:16.382Z,1.95
2023-05-14T13:09:43.171Z,2.17
2023-05-14T13:12:29.457Z,2.55
2023-05-14T13:14:56.281Z,2.95
2023-05-14T13:17:23.035Z,3.35
2023-05-14T13:19:49.874Z,2.75
2023-05-14T13:22:18.907Z,2.78
2023-05-14T13:25:04.156Z,3.13
2023-05-14T13:27:31.046Z,2.95
2023-05-14T13:29:58.418Z,1.88
2023-05-14T13:32:25.843Z,2.60
2023-05-14T13:34:52.644Z,3.05
2023-05-14T13:37:20.093Z,2.53
2023-05-14T13:39:47.161Z,2.25
2023-05-14T13:42:14.431Z,3.00
2023-05-14T13:44:41.237Z,2.20
2023-05-14T13:47:26.961Z,2.72
2023-05-14T13:49:54.607Z,1.85
2023-05-14T13:52:21.829Z,2.08
2023-05-14T13:54:49.019Z,1.88
2023-05-14T13:57:15.818Z,1.73
2023-05-14T13:59:42.773Z,1.30
2023-05-14T14:02:09.629Z,1.80
2023-05-14T14:04:36.437Z,1.25
2023-05-14T14:07:03.426Z,0.95
2023-05-14T14:09:35.083Z,0.10
2023-05-14T14:12:05.783Z,0.15
2023-05-14T14:14:51.497Z,0.10
2023-05-14T14:17:18.330Z,0.10
2023-05-14T14:19:45.219Z,0.10
2023-05-14T14:22:14.058Z,0.10
2023-05-14T14:24:40.842Z,0.20
2023-05-14T14:27:08.187Z,0.22
2023-05-14T14:29:35.587Z,0.20
2023-05-14T14:32:03.170Z,0.10
2023-05-14T14:34:48.630Z,0.15
2023-05-14T14:37:15.668Z,0.10
2023-05-14T14:39:42.382Z,0.30
2023-05-14T14:42:09.176Z,0.30
2023-05-14T14:44:35.919Z,0.20
2023-05-14T14:47:02.734Z,0.10
2023-05-14T14:49:30.780Z,0.10
2023-05-14T14:51:57.893Z,0.30
2023-05-14T14:54:24.652Z,0.20
2023-05-14T14:56:52.501Z,0.20
2023-05-14T14:59:19.217Z,0.10
2023-05-14T15:01:46.232Z,0.35
2023-05-14T15:04:13.054Z,0.30
2023-05-14T15:06:39.905Z,0.30
2023-05-14T15:09:07.793Z,0.30
2023-05-14T15:11:37.204Z,0.40
2023-05-14T15:14:04.324Z,0.20
2023-05-14T15:16:31.161Z,0.65
2023-05-14T15:18:58.027Z,0.43
2023-05-14T15:21:24.925Z,0.30
2023-05-14T15:26:54.569Z,0.40
2023-05-14T15:29:21.466Z,0.73
2023-05-14T15:31:48.411Z,1.00
2023-05-14T15:34:15.217Z,0.60
2023-05-14T15:36:42.076Z,1.10
2023-05-14T15:39:10.415Z,3.17
2023-05-14T15:41:37.471Z,1.02
2023-05-14T15:44:22.958Z,1.15
2023-05-14T15:46:49.932Z,1.30
2023-05-14T15:49:16.786Z,1.63
2023-05-14T15:51:43.648Z,2.00
2023-05-14T15:54:10.466Z,1.02
2023-05-14T15:56:37.275Z,1.00
2023-05-14T15:59:04.149Z,0.95
2023-05-14T16:01:31.020Z,1.48
2023-05-14T16:03:57.903Z,0.80
2023-05-14T16:06:25.962Z,1.23
2023-05-14T16:08:52.808Z,1.10
2023-05-14T16:11:19.634Z,1.23
2023-05-14T16:13:46.438Z,1.70
2023-05-14T16:16:13.301Z,1.58
2023-05-14T16:18:42.326Z,1.50
2023-05-14T16:21:09.229Z,1.52
2023-05-14T16:23:36.016Z,1.63
2023-05-14T16:26:02.824Z,1.00
2023-05-14T16:28:29.682Z,1.60
2023-05-14T16:30:56.495Z,2.08
2023-05-14T16:33:23.323Z,1.58
2023-05-14T16:35:51.252Z,1.25
2023-05-14T16:38:19.330Z,1.40
2023-05-14T16:40:46.093Z,2.17
2023-05-14T16:43:12.940Z,1.33
2023-05-14T16:45:40.378Z,1.90
2023-05-14T16:48:07.496Z,1.02
2023-05-14T16:50:37.546Z,1.75
2023-05-14T16:53:23.089Z,2.17
2023-05-14T16:55:49.898Z,2.55
2023-05-14T16:58:16.680Z,2.20
2023-05-14T17:00:43.505Z,2.33
2023-05-14T17:03:10.386Z,3.03
2023-05-14T17:05:37.232Z,2.35
2023-05-14T17:10:48.715Z,3.63
2023-05-14T17:13:15.501Z,2.20
2023-05-14T17:15:42.600Z,2.30
2023-05-14T17:18:09.473Z,3.17
2023-05-14T17:20:36.245Z,1.98
2023-05-14T17:23:03.079Z,2.45
2023-05-14T17:25:29.919Z,1.95
2023-05-14T17:27:56.640Z,2.33
2023-05-14T17:30:23.457Z,1.85
2023-05-14T17:32:51.215Z,1.85
2023-05-14T17:35:18.158Z,1.55
2023-05-14T17:37:44.990Z,1.35
2023-05-14T17:40:12.332Z,1.90
2023-05-14T17:42:39.173Z,1.42
2023-05-14T17:45:06.631Z,1.85
2023-05-14T17:47:33.567Z,1.65
2023-05-14T17:50:00.342Z,1.75
2023-05-14T17:52:27.160Z,2.20
2023-05-14T17:54:53.882Z,2.60
2023-05-14T17:57:21.264Z,2.20
2023-05-14T17:59:48.094Z,2.80
2023-05-14T18:02:14.913Z,2.28
2023-05-14T18:04:41.663Z,1.65
2023-05-14T18:07:08.573Z,2.10
2023-05-14T18:09:35.566Z,1.73
2023-05-14T18:12:02.356Z,1.40
2023-05-14T18:14:29.280Z,1.73
2023-05-14T18:16:56.204Z,2.80
2023-05-14T18:19:22.944Z,2.20
2023-05-14T18:21:49.779Z,2.85
2023-05-14T18:24:16.588Z,2.67
2023-05-14T18:26:43.512Z,2.70
2023-05-14T18:29:10.431Z,4.63
2023-05-14T18:31:37.228Z,4.88
2023-05-14T18:34:03.977Z,3.75
2023-05-14T18:36:50.970Z,3.22
2023-05-14T18:39:17.786Z,4.72
2023-05-14T18:41:44.509Z,3.40
2023-05-14T18:44:11.321Z,2.35
2023-05-14T18:46:38.116Z,2.85
2023-05-14T18:49:05.185Z,2.13
2023-05-14T18:51:31.924Z,2.33
2023-05-14T18:53:59.039Z,2.50
2023-05-14T18:56:25.982Z,2.35
2023-05-14T18:58:53.647Z,2.75
2023-05-14T19:01:21.291Z,2.40
2023-05-14T19:03:48.200Z,2.25
2023-05-14T19:06:15.107Z,1.95
2023-05-14T19:08:41.892Z,2.90
2023-05-14T19:11:08.713Z,1.90
2023-05-14T19:13:35.500Z,1.70
2023-05-14T19:16:02.483Z,3.13
2023-05-14T19:18:29.542Z,2.35
2023-05-14T19:21:15.457Z,2.10
2023-05-14T19:23:42.293Z,2.83
2023-05-14T19:26:09.245Z,4.55
2023-05-14T19:28:38.045Z,10.70
2023-05-14T19:31:05.642Z,6.63
2023-05-14T19:33:32.523Z,2.83
2023-05-14T19:35:59.446Z,2.55
2023-05-14T19:38:26.298Z,3.20
2023-05-14T19:40:56.809Z,4.07
2023-05-14T19:43:26.805Z,2.30
2023-05-14T19:45:53.719Z,1.92
2023-05-14T19:48:20.527Z,2.42
2023-05-14T19:50:47.607Z,1.95
2023-05-14T19:53:14.603Z,2.85
2023-05-14T19:56:00.709Z,1.70
2023-05-14T19:58:27.770Z,2.33
2023-05-14T20:00:57.358Z,2.50
2023-05-14T20:03:27.583Z,2.03
2023-05-14T20:05:55.834Z,2.50
2023-05-14T20:08:22.710Z,2.58
2023-05-14T20:10:49.664Z,3.30
2023-05-14T20:13:16.441Z,3.80
2023-05-14T20:15:43.437Z,3.45
2023-05-14T20:18:10.338Z,1.25
2023-05-14T20:20:37.462Z,1.70
2023-05-14T20:23:04.207Z,2.00
2023-05-14T20:25:32.825Z,2.72
2023-05-14T20:28:02.572Z,1.73
2023-05-14T20:30:47.976Z,1.40
2023-05-14T20:33:15.113Z,1.55
2023-05-14T20:35:43.981Z,1.40
2023-05-14T20:38:12.847Z,1.50
2023-05-14T20:40:40.417Z,1.20
2023-05-14T20:43:07.341Z,3.85
2023-05-14T20:45:34.268Z,5.68
2023-05-14T20:48:01.358Z,7.32
2023-05-14T20:50:28.352Z,4.80
2023-05-14T20:52:55.405Z,2.45
2023-05-14T20:55:22.457Z,2.17
2023-05-14T20:57:49.757Z,1.75
2023-05-14T21:00:17.220Z,1.55
2023-05-14T21:02:44.144Z,2.75
2023-05-14T21:05:11.093Z,3.88
2023-05-14T21:07:39.459Z,3.80
2023-05-14T21:10:08.327Z,2.15
2023-05-14T21:12:35.193Z,1.80
2023-05-14T21:15:01.971Z,1.98
2023-05-14T21:17:28.904Z,3.53
2023-05-14T21:19:55.722Z,8.65
2023-05-14T21:22:22.891Z,5.70
2023-05-14T21:24:51.132Z,2.03
2023-05-14T21:27:17.970Z,1.75
2023-05-14T21:29:47.549Z,1.42
2023-05-14T21:32:14.461Z,1.23
2023-05-14T21:35:00.048Z,1.50
2023-05-14T21:37:26.974Z,7.68
2023-05-14T21:39:53.803Z,7.43
2023-05-14T21:42:21.237Z,5.97
2023-05-14T21:44:48.044Z,2.83
2023-05-14T21:50:19.250Z,1.80
2023-05-14T21:52:46.038Z,2.25
2023-05-14T21:55:12.792Z,1.60
2023-05-14T21:57:40.582Z,1.50
2023-05-14T22:00:11.397Z,1.73
2023-05-14T22:02:39.717Z,4.78
2023-05-14T22:05:06.666Z,10.23
2023-05-14T22:07:33.464Z,4.20
2023-05-14T22:10:00.210Z,2.25
2023-05-14T22:12:27.185Z,1.90
2023-05-14T22:14:53.906Z,1.63
2023-05-14T22:17:39.406Z,1.80
2023-05-14T22:20:07.071Z,1.60
2023-05-14T22:22:34.354Z,1.55
2023-05-14T22:27:45.365Z,1.65
2023-05-14T22:30:12.292Z,1.90
2023-05-14T22:32:39.137Z,1.35
2023-05-14T22:35:06.017Z,1.70
2023-05-14T22:37:32.810Z,1.50
2023-05-14T22:43:02.516Z,1.38
2023-05-14T22:45:48.002Z,1.42
2023-05-14T22:48:14.813Z,1.70
2023-05-14T22:50:41.635Z,0.93
2023-05-14T22:53:08.446Z,1.85
2023-05-14T22:55:35.432Z,1.00
2023-05-14T22:58:02.292Z,1.40
2023-05-14T23:00:29.095Z,2.10
2023-05-14T23:02:55.925Z,1.23
2023-05-14T23:05:23.026Z,1.42
2023-05-14T23:07:50.002Z,1.08
2023-05-14T23:10:16.846Z,1.35
2023-05-14T23:12:43.640Z,1.30
2023-05-14T23:15:10.532Z,1.00
2023-05-14T23:17:38.162Z,1.13
2023-05-14T23:20:06.086Z,1.35
2023-05-14T23:22:32.911Z,2.05
2023-05-14T23:24:59.655Z,1.10
2023-05-14T23:27:27.786Z,1.88
2023-05-14T23:29:54.628Z,0.93
2023-05-14T23:32:21.441Z,1.02
2023-05-14T23:34:48.250Z,1.15
2023-05-14T23:39:59.569Z,1.40
2023-05-14T23:42:26.343Z,0.85
2023-05-14T23:44:53.076Z,1.10
2023-05-14T23:47:19.971Z,1.25
2023-05-14T23:50:05.923Z,0.98
2023-05-14T23:52:33.437Z,1.23
2023-05-14T23:55:00.731Z,1.10
2023-05-14T23:57:27.709Z,1.10
2023-05-14T23:59:54.531Z,0.98
